Fox River Grove, Illinois
Current Conditions -  °F | °C
As of 4:52 PM on Wednesday 26 Nov 2014 (Local Time) from KPWK Reporting Station
Overcast Overcast  
Wind Chill: -2°   Ceiling: 2300
Heat Index: -2°   Visibility: 9mi
Dew Point: -6°   Wind: 0mph
Humidity: 75%   Direction: NA
Pressure: 30.14"   Gusts: NA
Location:  42.2°N, 88.21°W
Report Text: KPWK 262252Z 00000KT 9SM OVC023 M02/M06 A3014 RMK AO2 SLP215 T10171056
Loading
Personal Weather Stations






























Interactive Weather Map New forecast layout! Learn more

10-Day Weather Forecast

Advertisements
Track Severe Weather on mobile